createdAt,value
2022-12-08T00:02:45.816Z,7.64
2022-12-08T00:06:13.289Z,7.34
2022-12-08T00:16:17.420Z,7.71
2022-12-08T00:19:25.271Z,7.88
2022-12-08T00:22:41.729Z,7.40
2022-12-08T00:25:50.532Z,7.66
2022-12-08T00:29:17.214Z,7.10
2022-12-08T00:32:29.449Z,7.40
2022-12-08T00:35:42.799Z,7.31
2022-12-08T00:38:49.800Z,7.36
2022-12-08T00:42:02.954Z,7.22
2022-12-08T00:45:19.296Z,7.39
2022-12-08T00:48:25.930Z,7.54
2022-12-08T00:51:34.520Z,7.78
2022-12-08T00:54:40.699Z,7.85
2022-12-08T00:57:46.241Z,7.94
2022-12-08T01:00:53.183Z,7.78
2022-12-08T01:04:08.598Z,7.89
2022-12-08T01:10:47.026Z,7.45
2022-12-08T01:14:33.339Z,7.34
2022-12-08T01:24:25.909Z,6.87
2022-12-08T01:27:37.091Z,6.94
2022-12-08T01:30:57.977Z,6.78
2022-12-08T01:34:15.461Z,7.26
2022-12-08T01:37:26.897Z,7.39
2022-12-08T01:44:16.506Z,7.38
2022-12-08T01:51:55.603Z,6.98
2022-12-08T01:54:23.590Z,7.37
2022-12-08T02:00:53.267Z,7.38
2022-12-08T02:28:13.883Z,7.13
2022-12-08T02:31:44.461Z,7.29
2022-12-08T02:38:17.534Z,7.35
2022-12-08T02:41:30.255Z,7.47
2022-12-08T02:44:52.233Z,7.17
2022-12-08T02:47:57.887Z,7.28
2022-12-08T02:54:37.012Z,7.01
2022-12-08T03:01:30.966Z,7.26
2022-12-08T03:04:46.227Z,7.09
2022-12-08T03:07:57.811Z,7.02
2022-12-08T03:11:14.435Z,6.87
2022-12-08T03:14:19.969Z,7.08
2022-12-08T03:17:29.520Z,6.92
2022-12-08T03:20:36.903Z,6.83
2022-12-08T03:24:12.528Z,7.06
2022-12-08T03:27:19.711Z,7.13
2022-12-08T03:30:53.682Z,7.06
2022-12-08T03:34:08.499Z,7.01
2022-12-08T03:37:16.656Z,7.17
2022-12-08T03:40:25.518Z,7.23
2022-12-08T03:43:40.406Z,6.99
2022-12-08T03:50:15.273Z,7.06
2022-12-08T03:53:26.770Z,7.00
2022-12-08T03:56:33.706Z,6.99
2022-12-08T04:03:16.902Z,6.95
2022-12-08T04:10:00.171Z,6.66
2022-12-08T04:13:19.200Z,6.74
2022-12-08T04:20:03.636Z,7.07
2022-12-08T04:23:12.548Z,6.64
2022-12-08T04:26:23.902Z,7.02
2022-12-08T04:29:31.629Z,7.25
2022-12-08T04:32:45.856Z,6.54
2022-12-08T04:35:54.736Z,7.07
2022-12-08T04:39:13.384Z,7.21
2022-12-08T04:49:34.684Z,7.21
2022-12-08T04:52:46.911Z,7.27
2022-12-08T04:59:16.543Z,7.32
2022-12-08T05:02:52.232Z,7.21
2022-12-08T05:05:57.577Z,7.11
2022-12-08T05:09:04.903Z,7.00
2022-12-08T05:16:20.150Z,6.88
2022-12-08T05:19:04.593Z,7.03
2022-12-08T05:22:22.837Z,7.25
2022-12-08T05:25:30.368Z,7.56
2022-12-08T05:28:43.325Z,7.41
2022-12-08T05:31:48.379Z,7.30
2022-12-08T05:35:03.211Z,7.09
2022-12-08T05:38:13.716Z,7.26
2022-12-08T05:41:21.679Z,6.84
2022-12-08T05:47:56.084Z,7.21
2022-12-08T05:54:48.249Z,7.51
2022-12-08T05:57:56.497Z,7.00
2022-12-08T06:01:18.584Z,6.88
2022-12-08T06:04:23.586Z,6.89
2022-12-08T06:07:37.002Z,6.61
2022-12-08T06:10:54.696Z,6.80
2022-12-08T06:14:06.392Z,7.14
2022-12-08T06:20:56.001Z,7.33
2022-12-08T06:24:00.346Z,7.00
2022-12-08T06:27:06.831Z,6.76
2022-12-08T06:30:29.773Z,7.26
2022-12-08T06:40:53.217Z,7.06
2022-12-08T06:44:14.336Z,7.16
2022-12-08T06:47:22.125Z,7.18
2022-12-08T06:50:29.943Z,7.10
2022-12-08T06:53:49.037Z,7.21
2022-12-08T07:00:20.444Z,6.99
2022-12-08T07:10:27.853Z,6.89
2022-12-08T07:13:59.890Z,7.04
2022-12-08T07:20:46.318Z,7.01
2022-12-08T07:38:15.964Z,6.69
2022-12-08T07:45:04.700Z,6.63
2022-12-08T07:48:54.383Z,6.62
2022-12-08T07:52:07.095Z,6.85
2022-12-08T07:55:11.605Z,7.04
2022-12-08T07:58:28.389Z,6.96
2022-12-08T08:05:45.163Z,7.09
2022-12-08T08:08:27.135Z,7.20
2022-12-08T08:11:31.548Z,7.22
2022-12-08T08:14:35.807Z,7.38
2022-12-08T08:17:45.509Z,7.03
2022-12-08T08:20:54.268Z,7.17
2022-12-08T08:24:01.792Z,7.31
2022-12-08T08:27:08.248Z,7.01
2022-12-08T08:30:20.720Z,7.10
2022-12-08T08:35:00.830Z,7.17
2022-12-08T08:36:53.971Z,7.28
2022-12-08T08:39:59.257Z,6.94
2022-12-08T08:43:07.480Z,7.19
2022-12-08T08:46:18.915Z,7.27
2022-12-08T08:49:32.006Z,7.30
2022-12-08T08:52:44.487Z,6.84
2022-12-08T08:55:53.198Z,7.16
2022-12-08T08:59:00.282Z,7.23
2022-12-08T09:02:08.899Z,6.87
2022-12-08T09:05:16.439Z,7.32
2022-12-08T09:08:24.914Z,7.48
2022-12-08T09:12:19.663Z,7.18
2022-12-08T09:16:38.940Z,7.62
2022-12-08T09:18:28.050Z,7.40
2022-12-08T09:21:33.579Z,7.77
2022-12-08T09:24:39.353Z,7.87
2022-12-08T09:27:47.249Z,7.70
2022-12-08T09:30:54.153Z,7.72
2022-12-08T09:34:01.070Z,7.74
2022-12-08T09:37:05.187Z,7.81
2022-12-08T09:40:59.189Z,7.65
2022-12-08T09:43:40.307Z,7.55
2022-12-08T09:46:45.950Z,7.55
2022-12-08T09:49:56.716Z,7.21
2022-12-08T09:53:02.268Z,7.49
2022-12-08T09:56:12.374Z,7.02
2022-12-08T09:59:19.075Z,7.28
2022-12-08T10:02:28.896Z,7.25
2022-12-08T10:06:20.190Z,7.62
2022-12-08T10:08:59.295Z,7.68
2022-12-08T10:12:06.400Z,7.48
2022-12-08T10:15:10.655Z,7.50
2022-12-08T10:18:15.908Z,7.39
2022-12-08T10:21:21.138Z,7.24
2022-12-08T10:24:25.137Z,7.51
2022-12-08T10:27:30.521Z,7.82
2022-12-08T10:30:34.687Z,8.03
2022-12-08T10:33:40.273Z,8.13
2022-12-08T10:36:45.696Z,7.80
2022-12-08T10:39:54.151Z,7.69
2022-12-08T10:43:10.211Z,7.77
2022-12-08T10:47:01.552Z,7.85
2022-12-08T10:49:41.496Z,7.83
2022-12-08T10:52:45.803Z,8.04
2022-12-08T10:55:51.326Z,7.54
2022-12-08T10:58:58.696Z,7.41
2022-12-08T11:02:10.165Z,7.63
2022-12-08T11:05:14.208Z,7.80
2022-12-08T11:08:22.572Z,7.36
2022-12-08T11:11:29.500Z,7.55
2022-12-08T11:18:02.889Z,7.81
2022-12-08T11:21:07.038Z,7.90
2022-12-08T11:24:13.516Z,7.95
2022-12-08T11:27:28.242Z,7.43
2022-12-08T11:30:32.172Z,7.63
2022-12-08T11:33:36.617Z,7.47
2022-12-08T11:36:40.656Z,7.35
2022-12-08T11:39:44.728Z,7.57
2022-12-08T11:42:49.841Z,8.34
2022-12-08T11:45:54.037Z,8.40
2022-12-08T11:49:01.272Z,8.69
2022-12-08T11:52:10.868Z,8.81
2022-12-08T11:55:14.976Z,8.41
2022-12-08T11:58:19.951Z,8.51
2022-12-08T12:01:33.989Z,8.19
2022-12-08T12:04:41.679Z,8.21
2022-12-08T12:07:46.901Z,8.20
2022-12-08T12:10:51.126Z,8.31
2022-12-08T12:14:03.142Z,8.32
2022-12-08T12:20:35.595Z,7.89
2022-12-08T12:23:46.311Z,8.25
2022-12-08T12:26:54.909Z,8.39
2022-12-08T12:29:58.902Z,8.40
2022-12-08T12:33:02.911Z,8.57
2022-12-08T12:36:06.732Z,8.14
2022-12-08T12:39:30.190Z,7.99
2022-12-08T12:43:32.112Z,8.47
2022-12-08T12:53:27.349Z,8.28
2022-12-08T13:00:45.872Z,8.46
2022-12-08T13:04:09.577Z,8.57
2022-12-08T13:07:25.585Z,8.36
2022-12-08T13:10:39.571Z,8.59
2022-12-08T13:14:37.389Z,8.53
2022-12-08T13:17:56.764Z,8.63
2022-12-08T13:21:08.650Z,8.60
2022-12-08T13:28:33.477Z,8.60
2022-12-08T13:31:16.387Z,8.68
2022-12-08T13:39:28.016Z,9.03
2022-12-08T13:41:35.545Z,8.76
2022-12-08T13:45:20.170Z,8.92
2022-12-08T13:53:49.043Z,9.03
2022-12-08T14:02:23.457Z,7.78
2022-12-08T14:16:26.597Z,8.52
2022-12-08T14:23:02.640Z,8.47
2022-12-08T14:26:12.460Z,8.26
2022-12-08T14:29:19.047Z,8.41
2022-12-08T14:32:28.659Z,8.25
2022-12-08T14:35:35.607Z,8.33
2022-12-08T14:42:12.696Z,8.44
2022-12-08T14:49:00.548Z,7.87
2022-12-08T14:52:31.521Z,7.97
2022-12-08T14:56:00.690Z,8.18
2022-12-08T15:02:41.798Z,8.32
2022-12-08T15:06:05.763Z,8.37
2022-12-08T15:09:14.091Z,8.01
2022-12-08T15:12:26.409Z,7.86
2022-12-08T15:18:52.490Z,8.03
2022-12-08T15:22:16.105Z,8.01
2022-12-08T15:28:39.851Z,7.85
2022-12-08T15:31:47.385Z,8.07
2022-12-08T15:34:53.988Z,7.52
2022-12-08T15:37:59.935Z,7.35
2022-12-08T15:44:25.780Z,6.59
2022-12-08T15:47:33.857Z,6.67
2022-12-08T15:51:11.968Z,6.89
2022-12-08T15:54:14.477Z,7.07
2022-12-08T16:00:52.272Z,7.20
2022-12-08T16:04:27.877Z,7.56
2022-12-08T16:07:22.085Z,7.11
2022-12-08T16:10:29.880Z,7.33
2022-12-08T16:14:16.667Z,7.40
2022-12-08T16:17:08.760Z,7.18
2022-12-08T16:20:12.909Z,7.41
2022-12-08T16:23:34.588Z,7.19
2022-12-08T16:30:21.487Z,7.29
2022-12-08T16:47:29.572Z,6.75
2022-12-08T16:50:47.830Z,6.72
2022-12-08T16:54:16.005Z,7.21
2022-12-08T16:57:20.595Z,7.40
2022-12-08T17:00:33.914Z,7.24
2022-12-08T17:03:41.181Z,7.18
2022-12-08T17:06:44.993Z,7.25
2022-12-08T17:09:48.819Z,7.33
2022-12-08T17:13:02.076Z,7.39
2022-12-08T17:16:07.613Z,6.85
2022-12-08T17:19:18.797Z,7.14
2022-12-08T17:22:32.639Z,7.17
2022-12-08T17:25:40.268Z,7.04
2022-12-08T17:29:02.282Z,7.29
2022-12-08T17:32:09.877Z,7.44
2022-12-08T17:35:18.883Z,7.23
2022-12-08T17:38:25.164Z,6.87
2022-12-08T17:41:29.549Z,6.75
2022-12-08T17:44:36.244Z,6.91
2022-12-08T17:47:41.494Z,7.05
2022-12-08T17:50:45.476Z,7.02
2022-12-08T17:53:48.987Z,7.05
2022-12-08T17:56:53.204Z,6.94
2022-12-08T17:59:59.768Z,7.19
2022-12-08T18:03:13.201Z,7.49
2022-12-08T18:09:58.348Z,7.06
2022-12-08T18:12:47.322Z,7.10
2022-12-08T18:15:51.262Z,7.18
2022-12-08T18:18:55.461Z,7.32
2022-12-08T18:21:59.484Z,7.51
2022-12-08T18:25:03.151Z,7.24
2022-12-08T18:28:07.801Z,6.97
2022-12-08T18:31:16.764Z,7.61
2022-12-08T18:34:32.712Z,7.67
2022-12-08T18:37:44.274Z,7.63
2022-12-08T18:40:54.347Z,7.74
2022-12-08T18:44:05.922Z,7.63
2022-12-08T18:47:15.334Z,7.61
2022-12-08T18:50:24.688Z,7.64
2022-12-08T18:53:29.005Z,7.76
2022-12-08T18:56:34.131Z,7.37
2022-12-08T18:59:38.411Z,7.30
2022-12-08T19:02:54.181Z,7.11
2022-12-08T19:05:58.185Z,7.22
2022-12-08T19:12:36.675Z,7.30
2022-12-08T19:19:22.984Z,7.30
2022-12-08T20:07:54.427Z,8.19
2022-12-08T20:10:59.428Z,8.13
2022-12-08T20:14:03.441Z,8.15
2022-12-08T20:17:07.388Z,8.02
2022-12-08T20:20:33.757Z,7.51
2022-12-08T20:23:47.267Z,7.60
2022-12-08T20:26:55.019Z,7.74
2022-12-08T20:29:59.017Z,8.01
2022-12-08T20:33:03.489Z,8.09
2022-12-08T20:36:07.243Z,8.03
2022-12-08T20:39:11.637Z,7.96
2022-12-08T20:42:15.387Z,7.77
2022-12-08T20:45:19.565Z,7.47
2022-12-08T20:48:23.533Z,7.60
2022-12-08T20:51:32.016Z,7.98
2022-12-08T20:54:36.048Z,7.84
2022-12-08T20:57:39.831Z,8.03
2022-12-08T21:00:44.149Z,8.05
2022-12-08T21:03:48.742Z,8.06
2022-12-08T21:06:52.785Z,8.10
2022-12-08T21:09:57.014Z,8.12
2022-12-08T21:13:00.900Z,7.98
2022-12-08T21:16:05.129Z,8.12
2022-12-08T21:19:09.325Z,8.00
2022-12-08T21:22:13.366Z,8.12
2022-12-08T21:25:17.716Z,7.72
2022-12-08T21:28:21.527Z,7.56
2022-12-08T21:31:25.773Z,7.72
2022-12-08T21:34:29.933Z,7.84
2022-12-08T21:37:33.742Z,7.63
2022-12-08T21:40:37.777Z,7.46
2022-12-08T21:43:42.114Z,7.37
2022-12-08T21:46:46.414Z,7.38
2022-12-08T21:49:50.598Z,7.44
2022-12-08T21:52:54.394Z,7.03
2022-12-08T21:55:58.279Z,6.82
2022-12-08T21:59:02.811Z,6.66
2022-12-08T22:02:07.381Z,7.02
2022-12-08T22:05:11.225Z,6.92
2022-12-08T22:08:15.363Z,7.32
2022-12-08T22:11:19.965Z,7.38
2022-12-08T22:14:24.069Z,7.46
2022-12-08T22:17:28.005Z,7.85
2022-12-08T22:20:32.114Z,7.95
2022-12-08T22:23:36.483Z,7.47
2022-12-08T22:26:40.541Z,7.72
2022-12-08T22:29:44.861Z,7.50
2022-12-08T22:32:48.841Z,7.18
2022-12-08T22:35:52.824Z,7.24
2022-12-08T22:38:58.704Z,7.21
2022-12-08T22:42:02.592Z,7.10
2022-12-08T22:45:06.893Z,6.58
2022-12-08T22:48:10.960Z,7.03
2022-12-08T22:51:14.731Z,6.88
2022-12-08T22:54:19.110Z,6.74
2022-12-08T22:57:23.311Z,6.75
2022-12-08T23:00:27.580Z,6.24
2022-12-08T23:03:32.867Z,6.00
2022-12-08T23:06:36.456Z,6.51
2022-12-08T23:09:41.577Z,6.38
2022-12-08T23:12:45.877Z,5.97
2022-12-08T23:15:50.044Z,6.23
2022-12-08T23:18:54.180Z,5.76
2022-12-08T23:21:58.292Z,5.99
2022-12-08T23:25:02.475Z,6.36
2022-12-08T23:28:06.286Z,6.63
2022-12-08T23:31:10.462Z,6.69
2022-12-08T23:34:14.502Z,6.58
2022-12-08T23:37:18.593Z,6.66
2022-12-08T23:40:22.905Z,5.91
2022-12-08T23:43:27.175Z,5.63
2022-12-08T23:46:33.701Z,5.95
2022-12-08T23:49:37.947Z,5.80
2022-12-08T23:52:41.694Z,5.46
2022-12-08T23:55:45.702Z,5.97
2022-12-08T23:58:49.667Z,6.33
